createdAt,value
2018-11-27T00:00:00.456Z,20.50
2018-11-27T00:01:00.480Z,21.40
2018-11-27T00:02:00.507Z,18.50
2018-11-27T00:03:00.534Z,16.80
2018-11-27T00:04:00.561Z,17.50
2018-11-27T00:05:00.589Z,18.00
2018-11-27T00:06:00.615Z,18.90
2018-11-27T00:07:00.642Z,17.70
2018-11-27T00:08:00.669Z,16.90
2018-11-27T00:09:00.697Z,16.30
2018-11-27T00:10:00.723Z,14.60
2018-11-27T00:11:00.749Z,13.90
2018-11-27T00:12:00.777Z,15.20
2018-11-27T00:13:00.807Z,16.20
2018-11-27T00:14:00.831Z,15.70
2018-11-27T00:15:00.858Z,15.10
2018-11-27T00:16:00.885Z,15.10
2018-11-27T00:17:00.912Z,15.60
2018-11-27T00:18:00.941Z,16.50
2018-11-27T00:19:00.965Z,16.20
2018-11-27T00:20:00.994Z,15.80
2018-11-27T00:21:01.020Z,16.60
2018-11-27T00:22:01.046Z,16.00
2018-11-27T00:23:01.074Z,14.30
2018-11-27T00:24:01.101Z,13.30
2018-11-27T00:25:01.132Z,14.00
2018-11-27T00:26:01.160Z,12.60
2018-11-27T00:27:01.181Z,14.60
2018-11-27T00:28:01.209Z,14.00
2018-11-27T00:29:01.235Z,14.30
2018-11-27T00:30:01.263Z,13.90
2018-11-27T00:31:01.295Z,13.70
2018-11-27T00:32:01.316Z,13.80
2018-11-27T00:33:01.343Z,13.10
2018-11-27T00:34:01.370Z,13.20
2018-11-27T00:35:01.396Z,13.90
2018-11-27T00:36:01.424Z,15.00
2018-11-27T00:37:01.455Z,14.10
2018-11-27T00:38:01.476Z,13.50
2018-11-27T00:39:01.504Z,14.90
2018-11-27T00:40:01.531Z,14.60
2018-11-27T00:41:01.558Z,14.20
2018-11-27T00:42:01.585Z,14.30
2018-11-27T00:43:01.611Z,14.10
2018-11-27T00:44:01.639Z,14.60
2018-11-27T00:45:01.666Z,13.50
2018-11-27T00:46:01.692Z,14.40
2018-11-27T00:47:01.719Z,15.10
2018-11-27T00:48:01.746Z,15.20
2018-11-27T00:49:01.773Z,15.20
2018-11-27T00:50:01.800Z,15.20
2018-11-27T00:51:01.831Z,15.40
2018-11-27T00:52:01.856Z,14.30
2018-11-27T00:53:01.883Z,14.40
2018-11-27T00:54:01.908Z,14.80
2018-11-27T00:55:01.934Z,14.80
2018-11-27T00:56:01.961Z,15.80
2018-11-27T00:57:01.994Z,15.50
2018-11-27T00:58:03.518Z,14.80
2018-11-27T00:59:02.042Z,14.70
2018-11-27T01:00:02.069Z,14.50
2018-11-27T01:01:02.097Z,14.60
2018-11-27T01:02:02.123Z,15.20
2018-11-27T01:03:02.149Z,14.60
2018-11-27T01:04:02.178Z,14.60
2018-11-27T01:05:02.205Z,14.80
2018-11-27T01:06:02.230Z,14.60
2018-11-27T01:07:02.258Z,14.60
2018-11-27T01:08:02.286Z,14.50
2018-11-27T01:09:02.313Z,14.70
2018-11-27T01:10:02.340Z,14.40
2018-11-27T01:11:02.365Z,14.80
2018-11-27T01:12:02.392Z,14.60
2018-11-27T01:13:02.419Z,14.60
2018-11-27T01:14:02.445Z,15.10
2018-11-27T01:15:02.473Z,14.80
2018-11-27T01:16:02.501Z,14.80
2018-11-27T01:17:02.526Z,14.60
2018-11-27T01:18:02.554Z,13.60
2018-11-27T01:19:02.581Z,13.40
2018-11-27T01:20:02.608Z,15.10
2018-11-27T01:21:02.634Z,15.20
2018-11-27T01:22:02.660Z,15.30
2018-11-27T01:23:02.687Z,14.80
2018-11-27T01:24:02.714Z,15.10
2018-11-27T01:25:02.743Z,14.00
2018-11-27T01:26:02.768Z,15.90
2018-11-27T01:27:02.795Z,14.30
2018-11-27T01:28:02.822Z,15.30
2018-11-27T01:29:02.854Z,15.80
2018-11-27T01:30:02.875Z,16.10
2018-11-27T01:31:02.903Z,16.40
2018-11-27T01:32:02.931Z,14.50
2018-11-27T01:33:02.956Z,16.30
2018-11-27T01:34:02.982Z,15.60
2018-11-27T01:35:03.011Z,16.80
2018-11-27T01:36:03.038Z,16.00
2018-11-27T01:37:03.064Z,16.90
2018-11-27T01:38:03.090Z,17.20
2018-11-27T01:39:03.118Z,17.90
2018-11-27T01:40:03.146Z,17.20
2018-11-27T01:41:03.172Z,17.00
2018-11-27T01:42:03.197Z,17.30
2018-11-27T01:43:03.226Z,16.80
2018-11-27T01:44:03.252Z,16.10
2018-11-27T01:45:03.278Z,17.20
2018-11-27T01:46:03.304Z,17.70
2018-11-27T01:47:03.333Z,17.50
2018-11-27T01:48:03.359Z,19.40
2018-11-27T01:49:03.386Z,19.10
2018-11-27T01:50:03.412Z,17.90
2018-11-27T01:51:03.440Z,18.50
2018-11-27T01:52:03.466Z,18.90
2018-11-27T01:53:03.496Z,18.90
2018-11-27T01:54:03.520Z,18.40
2018-11-27T01:55:03.547Z,18.80
2018-11-27T01:56:03.574Z,17.70
2018-11-27T01:57:03.601Z,18.90
2018-11-27T01:58:03.630Z,18.40
2018-11-27T01:59:03.655Z,18.50
2018-11-27T02:00:03.682Z,18.90
2018-11-27T02:01:03.708Z,19.30
2018-11-27T02:02:03.734Z,18.00
2018-11-27T02:03:03.762Z,17.10
2018-11-27T02:04:03.789Z,17.80
2018-11-27T02:05:03.817Z,18.20
2018-11-27T02:06:03.842Z,17.90
2018-11-27T02:07:03.871Z,18.00
2018-11-27T02:08:03.897Z,16.40
2018-11-27T02:09:03.924Z,16.70
2018-11-27T02:10:03.951Z,16.20
2018-11-27T02:11:03.977Z,17.00
2018-11-27T02:12:04.006Z,16.90
2018-11-27T02:13:04.030Z,17.40
2018-11-27T02:14:04.058Z,17.50
2018-11-27T02:15:04.083Z,17.30
2018-11-27T02:16:04.111Z,16.60
2018-11-27T02:17:04.139Z,17.20
2018-11-27T02:18:04.164Z,16.40
2018-11-27T02:19:04.191Z,17.80
2018-11-27T02:20:04.218Z,18.60
2018-11-27T02:21:04.245Z,19.70
2018-11-27T02:22:04.271Z,18.90
2018-11-27T02:23:04.301Z,18.20
2018-11-27T02:24:04.325Z,17.20
2018-11-27T02:25:04.353Z,15.90
2018-11-27T02:26:04.379Z,17.70
2018-11-27T02:27:04.406Z,17.60
2018-11-27T02:28:04.433Z,18.90
2018-11-27T02:29:04.460Z,17.70
2018-11-27T02:30:04.492Z,17.60
2018-11-27T02:31:04.516Z,17.70
2018-11-27T02:32:04.541Z,18.30
2018-11-27T02:33:04.569Z,20.00
2018-11-27T02:34:04.593Z,20.00
2018-11-27T02:35:04.621Z,19.70
2018-11-27T02:36:04.648Z,20.40
2018-11-27T02:37:04.675Z,21.90
2018-11-27T02:38:04.701Z,21.50
2018-11-27T02:39:04.728Z,21.70
2018-11-27T02:40:04.755Z,19.50
2018-11-27T02:41:04.782Z,18.20
2018-11-27T02:42:04.808Z,18.40
2018-11-27T02:43:04.837Z,17.30
2018-11-27T02:44:04.862Z,18.60
2018-11-27T02:45:04.892Z,18.40
2018-11-27T02:46:04.915Z,18.60
2018-11-27T02:47:04.943Z,17.80
2018-11-27T02:48:04.970Z,17.50
2018-11-27T02:49:04.998Z,17.60
2018-11-27T02:50:05.023Z,17.00
2018-11-27T02:51:05.049Z,16.80
2018-11-27T02:52:05.077Z,17.40
2018-11-27T02:53:05.107Z,16.60
2018-11-27T02:54:05.129Z,17.50
2018-11-27T02:55:05.157Z,17.50
2018-11-27T02:56:05.184Z,20.80
2018-11-27T02:57:05.212Z,23.10
2018-11-27T02:58:05.238Z,29.40
2018-11-27T02:59:05.265Z,33.10
2018-11-27T03:00:05.295Z,29.50
2018-11-27T03:01:05.322Z,26.80
2018-11-27T03:02:05.345Z,25.20
2018-11-27T03:03:05.376Z,20.80
2018-11-27T03:04:05.399Z,21.20
2018-11-27T03:05:05.427Z,21.10
2018-11-27T03:06:05.454Z,21.70
2018-11-27T03:07:05.480Z,19.20
2018-11-27T03:08:05.507Z,18.30
2018-11-27T03:09:05.533Z,18.10
2018-11-27T03:10:05.562Z,18.60
2018-11-27T03:11:05.590Z,20.30
2018-11-27T03:12:05.615Z,20.50
2018-11-27T03:13:05.642Z,19.90
2018-11-27T03:14:05.668Z,20.90
2018-11-27T03:15:05.694Z,21.40
2018-11-27T03:16:05.722Z,22.10
2018-11-27T03:17:05.749Z,22.20
2018-11-27T03:18:05.778Z,22.60
2018-11-27T03:19:05.802Z,22.30
2018-11-27T03:20:05.831Z,23.30
2018-11-27T03:21:05.857Z,23.20
2018-11-27T03:22:05.884Z,22.00
2018-11-27T03:23:05.911Z,19.80
2018-11-27T03:24:05.991Z,20.70
2018-11-27T03:25:05.964Z,19.90
2018-11-27T03:26:05.990Z,18.80
2018-11-27T03:27:06.026Z,18.70
2018-11-27T03:28:06.045Z,18.90
2018-11-27T03:29:06.074Z,18.80
2018-11-27T03:30:06.098Z,15.30
2018-11-27T03:31:06.128Z,16.00
2018-11-27T03:32:06.154Z,15.80
2018-11-27T03:33:06.181Z,15.30
2018-11-27T03:34:06.204Z,15.30
2018-11-27T03:35:06.232Z,15.60
2018-11-27T03:36:06.259Z,14.70
2018-11-27T03:37:06.286Z,14.60
2018-11-27T03:38:06.313Z,13.70
2018-11-27T03:39:06.339Z,12.40
2018-11-27T03:40:06.367Z,12.20
2018-11-27T03:41:06.395Z,12.10
2018-11-27T03:42:06.419Z,11.90
2018-11-27T03:43:06.446Z,11.30
2018-11-27T03:44:06.474Z,12.20
2018-11-27T03:45:06.524Z,11.30
2018-11-27T03:46:06.526Z,13.20
2018-11-27T03:47:06.552Z,12.00
2018-11-27T03:48:06.584Z,11.30
2018-11-27T03:49:06.607Z,9.80
2018-11-27T03:50:06.633Z,10.50
2018-11-27T03:51:06.660Z,10.10
2018-11-27T03:52:06.690Z,9.90
2018-11-27T03:53:06.714Z,9.30
2018-11-27T03:54:06.741Z,9.10
2018-11-27T03:55:06.768Z,8.70
2018-11-27T03:56:06.797Z,9.00
2018-11-27T03:57:06.822Z,8.50
2018-11-27T03:58:06.849Z,9.20
2018-11-27T03:59:06.875Z,8.90
2018-11-27T04:00:06.903Z,8.80
2018-11-27T04:01:06.928Z,9.00
2018-11-27T04:02:06.954Z,8.80
2018-11-27T04:03:06.982Z,10.10
2018-11-27T04:04:10.044Z,10.10
2018-11-27T04:05:07.041Z,10.50
2018-11-27T04:06:07.063Z,10.00
2018-11-27T04:07:07.089Z,9.80
2018-11-27T04:08:07.118Z,9.70
2018-11-27T04:09:07.144Z,10.90
2018-11-27T04:10:07.170Z,11.10
2018-11-27T04:11:07.198Z,10.40
2018-11-27T04:12:07.226Z,10.60
2018-11-27T04:13:07.253Z,11.10
2018-11-27T04:14:07.279Z,11.10
2018-11-27T04:15:07.303Z,11.10
2018-11-27T04:16:07.336Z,11.00
2018-11-27T04:17:07.361Z,11.10
2018-11-27T04:18:07.386Z,11.60
2018-11-27T04:19:07.413Z,11.70
2018-11-27T04:20:07.440Z,11.40
2018-11-27T04:21:07.467Z,11.70
2018-11-27T04:22:07.493Z,11.60
2018-11-27T04:23:07.602Z,11.70
2018-11-27T04:24:07.547Z,11.50
2018-11-27T04:25:07.575Z,12.10
2018-11-27T04:26:07.600Z,12.70
2018-11-27T04:27:07.628Z,11.20
2018-11-27T04:28:07.653Z,11.80
2018-11-27T04:29:07.682Z,11.10
2018-11-27T04:30:07.709Z,11.70
2018-11-27T04:31:07.734Z,11.90
2018-11-27T04:32:07.761Z,12.10
2018-11-27T04:33:07.791Z,12.00
2018-11-27T04:34:07.818Z,11.70
2018-11-27T04:35:07.843Z,11.00
2018-11-27T04:36:07.870Z,12.40
2018-11-27T04:37:07.903Z,11.00
2018-11-27T04:38:07.944Z,10.70
2018-11-27T04:39:07.950Z,10.20
2018-11-27T04:40:07.977Z,10.30
2018-11-27T04:41:08.004Z,10.80
2018-11-27T04:42:08.031Z,9.10
2018-11-27T04:43:08.059Z,11.00
2018-11-27T04:44:08.085Z,9.90
2018-11-27T04:45:08.112Z,8.80
2018-11-27T04:46:08.139Z,9.20
2018-11-27T04:47:08.166Z,9.40
2018-11-27T04:48:08.192Z,10.10
2018-11-27T04:49:08.224Z,9.50
2018-11-27T04:50:08.245Z,9.90
2018-11-27T04:51:08.271Z,9.60
2018-11-27T04:52:08.303Z,9.60
2018-11-27T04:53:08.330Z,9.20
2018-11-27T04:54:08.353Z,9.80
2018-11-27T04:55:08.380Z,9.70
2018-11-27T04:56:08.406Z,10.00
2018-11-27T04:57:08.435Z,10.00
2018-11-27T04:58:08.461Z,10.10
2018-11-27T04:59:08.487Z,9.10
2018-11-27T05:00:08.516Z,10.10
2018-11-27T05:01:08.542Z,10.00
2018-11-27T05:02:08.572Z,9.80
2018-11-27T05:03:08.595Z,9.90
2018-11-27T05:04:08.622Z,9.70
2018-11-27T05:05:08.650Z,10.10
2018-11-27T05:06:08.674Z,10.60
2018-11-27T05:07:08.702Z,10.60
2018-11-27T05:08:08.731Z,10.80
2018-11-27T05:09:08.758Z,11.20
2018-11-27T05:10:08.783Z,11.00
2018-11-27T05:11:08.809Z,9.40
2018-11-27T05:12:08.835Z,11.50
2018-11-27T05:13:08.865Z,11.40
2018-11-27T05:14:08.903Z,11.40
2018-11-27T05:15:08.926Z,11.50
2018-11-27T05:16:08.944Z,13.90
2018-11-27T05:17:08.971Z,13.70
2018-11-27T05:18:08.999Z,13.30
2018-11-27T05:19:09.024Z,12.50
2018-11-27T05:20:09.050Z,12.80
2018-11-27T05:21:09.078Z,14.20
2018-11-27T05:22:09.104Z,15.40
2018-11-27T05:23:09.132Z,15.80
2018-11-27T05:24:09.159Z,16.20
2018-11-27T05:25:09.187Z,20.10
2018-11-27T05:26:09.212Z,18.00
2018-11-27T05:27:09.239Z,19.10
2018-11-27T05:28:09.265Z,21.40
2018-11-27T05:29:09.293Z,20.00
2018-11-27T05:30:09.319Z,19.70
2018-11-27T05:31:09.347Z,21.20
2018-11-27T05:32:09.374Z,22.70
2018-11-27T05:33:09.404Z,24.40
2018-11-27T05:34:09.428Z,26.00
2018-11-27T05:35:09.454Z,27.60
2018-11-27T05:36:09.483Z,26.00
2018-11-27T05:37:09.508Z,28.80
2018-11-27T05:38:09.534Z,28.20
2018-11-27T05:39:09.561Z,27.70
2018-11-27T05:40:09.588Z,27.40
2018-11-27T05:41:09.617Z,28.70
2018-11-27T05:42:09.641Z,28.10
2018-11-27T05:43:09.670Z,28.00
2018-11-27T05:44:09.697Z,28.30
2018-11-27T05:45:09.729Z,27.40
2018-11-27T05:46:09.749Z,29.80
2018-11-27T05:47:09.775Z,30.50
2018-11-27T05:48:09.803Z,29.20
2018-11-27T05:49:09.832Z,29.40
2018-11-27T05:50:09.856Z,30.10
2018-11-27T05:51:09.883Z,29.80
2018-11-27T05:52:09.910Z,29.40
2018-11-27T05:53:09.937Z,29.30
2018-11-27T05:54:09.964Z,30.60
2018-11-27T05:55:09.991Z,28.50
2018-11-27T05:56:10.018Z,28.30
2018-11-27T05:57:10.045Z,28.60
2018-11-27T05:58:10.070Z,29.30
2018-11-27T05:59:10.097Z,28.90
2018-11-27T06:00:10.124Z,29.00
2018-11-27T06:01:10.152Z,29.80
2018-11-27T06:02:10.177Z,29.90
2018-11-27T06:03:10.204Z,29.00
2018-11-27T06:04:10.231Z,28.30
2018-11-27T06:05:10.259Z,29.10
2018-11-27T06:06:10.285Z,29.30
2018-11-27T06:07:10.312Z,30.30
2018-11-27T06:08:10.339Z,31.60
2018-11-27T06:09:10.372Z,32.00
2018-11-27T06:10:10.391Z,32.00
2018-11-27T06:11:10.419Z,33.10
2018-11-27T06:12:10.446Z,30.80
2018-11-27T06:13:10.474Z,32.80
2018-11-27T06:14:10.501Z,29.90
2018-11-27T06:15:10.527Z,32.10
2018-11-27T06:16:10.553Z,31.30
2018-11-27T06:17:10.584Z,32.10
2018-11-27T06:18:10.614Z,32.70
2018-11-27T06:19:10.635Z,31.50
2018-11-27T06:20:10.661Z,31.50
2018-11-27T06:21:10.688Z,31.20
2018-11-27T06:22:10.716Z,32.10
2018-11-27T06:23:10.742Z,30.70
2018-11-27T06:24:10.769Z,31.10
2018-11-27T06:25:10.798Z,29.70
2018-11-27T06:26:10.822Z,30.90
2018-11-27T06:27:10.849Z,31.10
2018-11-27T06:28:10.877Z,31.60
2018-11-27T06:29:10.903Z,31.30
2018-11-27T06:30:10.934Z,32.30
2018-11-27T06:31:10.958Z,32.10
2018-11-27T06:32:10.983Z,30.40
2018-11-27T06:33:11.010Z,28.90
2018-11-27T06:34:11.037Z,29.30
2018-11-27T06:35:11.063Z,28.70
2018-11-27T06:36:11.090Z,31.80
2018-11-27T06:37:11.118Z,30.00
2018-11-27T06:38:11.144Z,30.30
2018-11-27T06:39:11.170Z,31.00
2018-11-27T06:40:11.196Z,30.10
2018-11-27T06:41:11.225Z,29.20
2018-11-27T06:42:11.250Z,31.00
2018-11-27T06:43:11.276Z,29.90
2018-11-27T06:44:11.304Z,29.00
2018-11-27T06:45:11.331Z,30.10
2018-11-27T06:46:11.357Z,29.30
2018-11-27T06:47:11.384Z,29.60
2018-11-27T06:48:11.411Z,29.50
2018-11-27T06:49:11.438Z,30.50
2018-11-27T06:50:11.467Z,31.00
2018-11-27T06:51:11.492Z,29.10
2018-11-27T06:52:11.518Z,30.00
2018-11-27T06:53:11.546Z,30.90
2018-11-27T06:54:11.571Z,29.60
2018-11-27T06:55:11.604Z,30.30
2018-11-27T06:56:11.629Z,31.70
2018-11-27T06:57:11.652Z,30.50
2018-11-27T06:58:11.679Z,30.00
2018-11-27T06:59:11.705Z,30.70
2018-11-27T07:00:12.035Z,29.20
2018-11-27T07:01:11.763Z,30.00
2018-11-27T07:02:11.785Z,30.30
2018-11-27T07:03:11.812Z,30.70
2018-11-27T07:04:11.840Z,31.30
2018-11-27T07:05:11.867Z,30.50
2018-11-27T07:06:11.892Z,31.60
2018-11-27T07:07:11.920Z,30.70
2018-11-27T07:08:11.946Z,30.80
2018-11-27T07:09:11.973Z,29.60
2018-11-27T07:10:12.000Z,30.20
2018-11-27T07:11:13.849Z,30.30
2018-11-27T07:12:12.054Z,32.80
2018-11-27T07:13:12.081Z,32.70
2018-11-27T07:14:12.107Z,32.00
2018-11-27T07:15:12.134Z,32.40
2018-11-27T07:16:12.161Z,32.50
2018-11-27T07:17:12.188Z,33.20
2018-11-27T07:18:12.212Z,32.60
2018-11-27T07:19:12.240Z,32.40
2018-11-27T07:20:12.268Z,31.00
2018-11-27T07:21:12.299Z,33.50
2018-11-27T07:22:12.319Z,32.40
2018-11-27T07:23:12.348Z,32.60
2018-11-27T07:24:12.372Z,33.40
2018-11-27T07:25:12.400Z,32.30
2018-11-27T07:26:12.426Z,32.70
2018-11-27T07:27:12.453Z,34.20
2018-11-27T07:28:12.479Z,32.90
2018-11-27T07:29:12.506Z,32.90
2018-11-27T07:30:12.535Z,33.70
2018-11-27T07:31:12.892Z,35.10
2018-11-27T07:32:12.586Z,34.30
2018-11-27T07:33:12.613Z,34.40
2018-11-27T07:34:12.639Z,35.40
2018-11-27T07:35:12.666Z,35.90
2018-11-27T07:36:12.698Z,36.80
2018-11-27T07:37:12.720Z,35.80
2018-11-27T07:38:12.747Z,36.20
2018-11-27T07:39:12.773Z,34.70
2018-11-27T07:40:12.799Z,35.40
2018-11-27T07:41:12.827Z,35.00
2018-11-27T07:42:12.862Z,34.00
2018-11-27T07:43:12.879Z,33.00
2018-11-27T07:44:12.906Z,35.60
2018-11-27T07:45:12.932Z,34.80
2018-11-27T07:46:12.960Z,33.90
2018-11-27T07:47:12.985Z,34.80
2018-11-27T07:48:13.018Z,35.70
2018-11-27T07:49:13.040Z,35.50
2018-11-27T07:50:13.065Z,34.30
2018-11-27T07:51:13.106Z,35.10
2018-11-27T07:52:13.120Z,36.00
2018-11-27T07:53:13.151Z,34.40
2018-11-27T07:54:13.174Z,35.10
2018-11-27T07:55:13.198Z,34.50
2018-11-27T07:56:13.227Z,34.30
2018-11-27T07:57:13.253Z,33.00
2018-11-27T07:58:13.279Z,34.40
2018-11-27T07:59:13.306Z,33.60
2018-11-27T08:00:13.333Z,33.00
2018-11-27T08:01:13.361Z,34.00
2018-11-27T08:02:13.388Z,33.50
2018-11-27T08:03:13.412Z,32.60
2018-11-27T08:04:13.443Z,33.40
2018-11-27T08:05:13.467Z,33.20
2018-11-27T08:06:13.493Z,32.20
2018-11-27T08:07:13.522Z,32.70
2018-11-27T08:08:13.548Z,32.80
2018-11-27T08:09:13.576Z,32.70
2018-11-27T08:10:13.601Z,33.00
2018-11-27T08:11:13.631Z,31.30
2018-11-27T08:12:13.657Z,31.20
2018-11-27T08:13:13.685Z,33.80
2018-11-27T08:14:13.709Z,32.90
2018-11-27T08:15:13.749Z,32.20
2018-11-27T08:16:13.765Z,34.10
2018-11-27T08:17:13.792Z,32.80
2018-11-27T08:18:13.817Z,32.60
2018-11-27T08:19:13.845Z,36.10
2018-11-27T08:20:13.873Z,35.60
2018-11-27T08:21:13.899Z,34.40
2018-11-27T08:22:13.926Z,34.70
2018-11-27T08:23:13.953Z,33.90
2018-11-27T08:24:13.980Z,34.40
2018-11-27T08:25:14.008Z,34.10
2018-11-27T08:26:14.035Z,33.80
2018-11-27T08:27:14.063Z,32.40
2018-11-27T08:28:14.088Z,33.60
2018-11-27T08:29:14.117Z,32.50
2018-11-27T08:30:14.143Z,31.70
2018-11-27T08:31:14.170Z,33.10
2018-11-27T08:32:14.200Z,33.20
2018-11-27T08:33:14.225Z,34.10
2018-11-27T08:34:14.251Z,33.90
2018-11-27T08:35:14.278Z,33.40
2018-11-27T08:36:14.307Z,34.40
2018-11-27T08:37:14.337Z,34.60
2018-11-27T08:38:14.363Z,32.90
2018-11-27T08:39:14.395Z,33.70
2018-11-27T08:40:14.413Z,33.00
2018-11-27T08:41:14.442Z,34.50
2018-11-27T08:42:14.469Z,34.00
2018-11-27T08:43:14.494Z,32.10
2018-11-27T08:44:14.523Z,31.80
2018-11-27T08:45:14.550Z,33.10
2018-11-27T08:46:14.579Z,33.20
2018-11-27T08:47:14.603Z,32.40
2018-11-27T08:48:14.631Z,32.90
2018-11-27T08:49:14.657Z,32.60
2018-11-27T08:50:14.686Z,32.00
2018-11-27T08:51:14.711Z,34.30
2018-11-27T08:52:14.739Z,32.40
2018-11-27T08:53:14.767Z,32.50
2018-11-27T08:54:14.794Z,30.50
2018-11-27T08:55:14.820Z,33.50
2018-11-27T08:56:14.848Z,32.50
2018-11-27T08:57:14.876Z,31.10
2018-11-27T08:58:14.903Z,32.50
2018-11-27T08:59:14.930Z,31.70
2018-11-27T09:00:14.957Z,30.50
2018-11-27T09:01:14.985Z,32.30
2018-11-27T09:02:15.012Z,32.50
2018-11-27T09:03:15.039Z,31.60
2018-11-27T09:04:15.067Z,30.90
2018-11-27T09:05:15.096Z,31.10
2018-11-27T09:06:15.120Z,30.90
2018-11-27T09:07:15.148Z,29.90
2018-11-27T09:08:15.176Z,31.50
2018-11-27T09:09:15.204Z,29.40
2018-11-27T09:10:15.231Z,30.80
2018-11-27T09:11:15.257Z,30.80
2018-11-27T09:12:15.285Z,30.70
2018-11-27T09:13:15.575Z,32.40
2018-11-27T09:14:15.340Z,30.30
2018-11-27T09:15:15.414Z,29.10
2018-11-27T09:16:15.395Z,30.40
2018-11-27T09:17:15.422Z,29.50
2018-11-27T09:18:15.449Z,29.10
2018-11-27T09:19:15.477Z,29.50
2018-11-27T09:20:15.504Z,30.10
2018-11-27T09:21:15.533Z,28.90
2018-11-27T09:22:15.559Z,29.90
2018-11-27T09:23:15.587Z,29.80
2018-11-27T09:24:15.617Z,31.00
2018-11-27T09:25:15.641Z,33.10
2018-11-27T09:26:15.672Z,29.50
2018-11-27T09:27:15.697Z,31.80
2018-11-27T09:28:15.728Z,30.00
2018-11-27T09:29:15.751Z,30.00
2018-11-27T09:30:15.780Z,30.20
2018-11-27T09:31:15.808Z,30.60
2018-11-27T09:32:15.835Z,30.30
2018-11-27T09:33:15.863Z,29.70
2018-11-27T09:34:15.889Z,29.20
2018-11-27T09:35:15.920Z,32.10
2018-11-27T09:36:15.949Z,31.40
2018-11-27T09:37:15.975Z,32.30
2018-11-27T09:38:16.003Z,31.90
2018-11-27T09:39:16.029Z,31.20
2018-11-27T09:40:16.059Z,31.90
2018-11-27T09:41:16.086Z,31.00
2018-11-27T09:42:16.112Z,30.50
2018-11-27T09:43:16.139Z,30.90
2018-11-27T09:44:16.167Z,30.60
2018-11-27T09:45:16.195Z,30.40
2018-11-27T09:46:16.222Z,31.40
2018-11-27T09:47:16.249Z,30.50
2018-11-27T09:48:16.278Z,30.80
2018-11-27T09:49:16.306Z,30.90
2018-11-27T09:50:16.333Z,31.30
2018-11-27T09:51:16.361Z,29.70
2018-11-27T09:52:16.392Z,30.70
2018-11-27T09:53:16.417Z,30.40
2018-11-27T09:54:16.444Z,30.40
2018-11-27T09:55:16.472Z,31.20
2018-11-27T09:56:16.499Z,30.90
2018-11-27T09:57:16.527Z,31.70
2018-11-27T09:58:16.554Z,30.20
2018-11-27T09:59:16.581Z,30.00
2018-11-27T10:00:16.610Z,31.60
2018-11-27T10:01:16.638Z,31.50
2018-11-27T10:02:16.664Z,30.50
2018-11-27T10:03:16.693Z,31.10
2018-11-27T10:04:16.725Z,31.90
2018-11-27T10:05:16.749Z,31.80
2018-11-27T10:06:16.781Z,30.40
2018-11-27T10:07:17.458Z,30.80
2018-11-27T10:08:16.835Z,30.50
2018-11-27T10:09:16.860Z,31.50
2018-11-27T10:10:16.888Z,32.40
2018-11-27T10:11:16.915Z,32.20
2018-11-27T10:12:16.944Z,30.40
2018-11-27T10:13:16.972Z,32.40
2018-11-27T10:14:17.018Z,33.10
2018-11-27T10:15:17.028Z,33.00
2018-11-27T10:16:17.057Z,30.30
2018-11-27T10:17:17.084Z,31.00
2018-11-27T10:18:17.112Z,31.20
2018-11-27T10:19:17.139Z,32.60
2018-11-27T10:20:17.169Z,31.30
2018-11-27T10:21:17.194Z,30.40
2018-11-27T10:22:17.221Z,30.30
2018-11-27T10:23:17.249Z,32.00
2018-11-27T10:24:17.276Z,32.10
2018-11-27T10:25:17.307Z,31.20
2018-11-27T10:26:17.333Z,31.90
2018-11-27T10:27:17.360Z,31.20
2018-11-27T10:28:17.389Z,32.30
2018-11-27T10:29:17.417Z,31.40
2018-11-27T10:30:17.444Z,33.50
2018-11-27T10:31:17.473Z,32.60
2018-11-27T10:32:17.500Z,33.10
2018-11-27T10:33:17.529Z,31.50
2018-11-27T10:34:17.594Z,31.30
2018-11-27T10:35:17.584Z,32.10
2018-11-27T10:36:17.613Z,32.90
2018-11-27T10:37:17.640Z,31.30
2018-11-27T10:38:17.668Z,32.00
2018-11-27T10:39:17.695Z,32.60
2018-11-27T10:40:17.723Z,32.50
2018-11-27T10:41:17.753Z,33.00
2018-11-27T10:42:17.777Z,31.60
2018-11-27T10:43:19.885Z,31.50
2018-11-27T10:44:17.835Z,32.10
2018-11-27T10:45:17.865Z,32.80
2018-11-27T10:46:17.890Z,32.70
2018-11-27T10:47:17.918Z,32.50
2018-11-27T10:48:17.946Z,32.50
2018-11-27T10:49:17.975Z,33.10
2018-11-27T10:50:18.003Z,33.30
2018-11-27T10:51:18.031Z,32.90
2018-11-27T10:52:18.059Z,34.20
2018-11-27T10:53:18.085Z,36.80
2018-11-27T10:54:18.116Z,35.00
2018-11-27T10:55:18.157Z,35.50
2018-11-27T10:56:18.170Z,34.20
2018-11-27T10:57:18.198Z,34.60
2018-11-27T10:58:18.224Z,34.20
2018-11-27T10:59:18.252Z,34.20
2018-11-27T11:00:18.281Z,32.40
2018-11-27T11:01:18.315Z,32.80
2018-11-27T11:02:18.335Z,34.60
2018-11-27T11:03:18.362Z,32.90
2018-11-27T11:04:18.392Z,32.60
2018-11-27T11:05:18.419Z,31.90
2018-11-27T11:06:18.448Z,32.40
2018-11-27T11:07:18.478Z,34.40
2018-11-27T11:08:18.502Z,34.00
2018-11-27T11:09:18.530Z,31.60
2018-11-27T11:10:18.559Z,32.50
2018-11-27T11:11:18.586Z,34.40
2018-11-27T11:12:18.618Z,32.60
2018-11-27T11:13:18.642Z,33.20
2018-11-27T11:14:18.671Z,33.20
2018-11-27T11:15:18.697Z,32.30
2018-11-27T11:16:18.726Z,32.90
2018-11-27T11:17:18.753Z,33.00
2018-11-27T11:18:18.782Z,33.30
2018-11-27T11:19:18.812Z,33.90
2018-11-27T11:20:18.836Z,32.30
2018-11-27T11:21:18.867Z,32.30
2018-11-27T11:22:18.891Z,33.60
2018-11-27T11:23:18.919Z,34.90
2018-11-27T11:24:18.947Z,35.30
2018-11-27T11:25:18.976Z,35.90
2018-11-27T11:26:19.002Z,37.00
2018-11-27T11:27:19.031Z,36.10
2018-11-27T11:28:19.059Z,37.00
2018-11-27T11:29:19.085Z,34.80
2018-11-27T11:30:19.113Z,33.20
2018-11-27T11:31:19.140Z,36.00
2018-11-27T11:32:19.168Z,36.40
2018-11-27T11:33:19.197Z,36.40
2018-11-27T11:34:19.223Z,33.20
2018-11-27T11:35:19.251Z,34.00
2018-11-27T11:36:19.280Z,35.00
2018-11-27T11:37:19.318Z,35.90
2018-11-27T11:38:19.334Z,34.00
2018-11-27T11:39:19.363Z,32.50
2018-11-27T11:40:19.392Z,35.00
2018-11-27T11:41:19.419Z,34.20
2018-11-27T11:42:19.446Z,35.20
2018-11-27T11:43:19.474Z,35.20
2018-11-27T11:44:19.501Z,35.00
2018-11-27T11:45:19.528Z,32.80
2018-11-27T11:46:19.555Z,33.00
2018-11-27T11:47:19.586Z,33.80
2018-11-27T11:48:19.612Z,38.40
2018-11-27T11:49:19.640Z,42.40
2018-11-27T11:50:19.666Z,43.90
2018-11-27T11:51:19.697Z,43.20
2018-11-27T11:52:19.724Z,40.70
2018-11-27T11:53:19.749Z,40.20
2018-11-27T11:54:19.779Z,37.90
2018-11-27T11:55:19.802Z,34.90
2018-11-27T11:56:19.832Z,34.50
2018-11-27T11:57:19.859Z,33.40
2018-11-27T11:58:19.887Z,32.90
2018-11-27T11:59:19.914Z,31.80
2018-11-27T12:00:19.943Z,33.80
2018-11-27T12:01:19.969Z,33.80
2018-11-27T12:02:19.995Z,31.90
2018-11-27T12:03:20.024Z,32.30
2018-11-27T12:04:20.052Z,30.80
2018-11-27T12:05:24.885Z,31.80
2018-11-27T12:06:20.106Z,31.60
2018-11-27T12:07:20.134Z,34.60
2018-11-27T12:08:20.161Z,32.60
2018-11-27T12:09:20.189Z,32.10
2018-11-27T12:10:20.216Z,32.00
2018-11-27T12:11:20.244Z,31.20
2018-11-27T12:12:20.272Z,30.90
2018-11-27T12:13:20.300Z,31.80
2018-11-27T12:14:20.326Z,30.60
2018-11-27T12:15:20.354Z,31.00
2018-11-27T12:16:20.381Z,32.50
2018-11-27T12:17:20.409Z,30.50
2018-11-27T12:18:20.436Z,29.10
2018-11-27T12:19:20.465Z,28.90
2018-11-27T12:20:20.492Z,29.80
2018-11-27T12:21:20.519Z,29.90
2018-11-27T12:22:20.546Z,31.70
2018-11-27T12:23:20.576Z,30.60
2018-11-27T12:24:20.601Z,30.90
2018-11-27T12:25:24.116Z,29.60
2018-11-27T12:26:20.657Z,29.70
2018-11-27T12:27:20.685Z,29.50
2018-11-27T12:28:20.712Z,31.00
2018-11-27T12:29:20.739Z,28.40
2018-11-27T12:30:20.768Z,29.10
2018-11-27T12:31:20.793Z,28.40
2018-11-27T12:32:20.822Z,26.90
2018-11-27T12:33:20.851Z,26.60
2018-11-27T12:34:20.878Z,27.80
2018-11-27T12:35:20.904Z,28.90
2018-11-27T12:36:20.932Z,27.30
2018-11-27T12:37:20.960Z,28.50
2018-11-27T12:38:20.986Z,25.10
2018-11-27T12:39:21.014Z,28.10
2018-11-27T12:40:21.046Z,26.00
2018-11-27T12:41:21.070Z,26.40
2018-11-27T12:42:21.097Z,27.40
2018-11-27T12:43:21.124Z,25.80
2018-11-27T12:44:21.154Z,25.20
2018-11-27T12:45:21.184Z,27.40
2018-11-27T12:46:21.207Z,26.50
2018-11-27T12:47:21.234Z,27.90
2018-11-27T12:48:21.263Z,27.10
2018-11-27T12:49:21.291Z,27.60
2018-11-27T12:50:21.372Z,28.50
2018-11-27T12:51:21.351Z,29.10
2018-11-27T12:52:21.373Z,27.70
2018-11-27T12:53:21.401Z,26.00